Time;durP1;ratioP1;P1;durP2;ratioP2;P2;SDS_P1;SDS_P2;PMS_P1;PMS_P2;Temp;Humidity;BMP_temperature;BMP_pressure;BME280_temperature;BME280_humidity;BME280_pressure;Samples;Min_cycle;Max_cycle;Signal;HPM_P1;HPM_P2
2022/05/04 00:01:16;;;;;;;9.00;6.43;;;;;;;;;;5043204;28;20073;-72
2022/05/04 00:03:42;;;;;;;9.30;6.50;;;;;;;;;;5030839;28;20040;-71
2022/05/04 00:06:07;;;;;;;8.17;6.53;;;;;;;;;;5042030;28;20376;-70
2022/05/04 00:08:32;;;;;;;9.15;6.50;;;;;;;;;;5044866;28;20286;-72
2022/05/04 00:10:58;;;;;;;10.98;6.95;;;;;;;;;;5050548;28;20029;-70
2022/05/04 00:13:23;;;;;;;9.88;6.70;;;;;;;;;;5038320;28;20541;-70
2022/05/04 00:15:48;;;;;;;15.43;6.68;;;;;;;;;;5042106;28;20071;-69
2022/05/04 00:18:13;;;;;;;8.65;6.28;;;;;;;;;;5054697;28;20032;-70
2022/05/04 00:20:39;;;;;;;11.73;7.17;;;;;;;;;;5050362;28;20031;-70
2022/05/04 00:23:04;;;;;;;11.90;7.10;;;;;;;;;;5048945;28;20274;-71
2022/05/04 00:25:29;;;;;;;10.00;6.57;;;;;;;;;;5050720;28;20775;-72
2022/05/04 00:27:55;;;;;;;13.07;7.00;;;;;;;;;;5053857;28;20554;-71
2022/05/04 00:30:20;;;;;;;12.23;6.80;;;;;;;;;;5040507;28;20349;-70
2022/05/04 00:32:46;;;;;;;11.60;7.00;;;;;;;;;;5032076;28;20047;-71
2022/05/04 00:35:11;;;;;;;8.23;6.78;;;;;;;;;;5052946;28;20033;-69
2022/05/04 00:37:37;;;;;;;12.25;6.93;;;;;;;;;;5052944;28;20034;-73
2022/05/04 00:40:02;;;;;;;10.63;6.82;;;;;;;;;;5053296;28;20029;-71
2022/05/04 00:42:27;;;;;;;11.38;6.50;;;;;;;;;;5053254;28;20048;-71
2022/05/04 00:44:53;;;;;;;9.33;6.83;;;;;;;;;;5050754;28;20055;-70
2022/05/04 00:47:19;;;;;;;9.53;6.57;;;;;;;;;;5044743;28;20280;-71
2022/05/04 00:49:46;;;;;;;8.73;6.88;;;;;;;;;;5051845;28;20337;-70
2022/05/04 00:52:13;;;;;;;9.55;6.75;;;;;;;;;;5035593;28;20037;-71
2022/05/04 00:54:40;;;;;;;9.45;6.53;;;;;;;;;;5029597;28;20068;-71
2022/05/04 00:57:05;;;;;;;12.05;6.47;;;;;;;;;;5030543;28;20073;-71
2022/05/04 00:59:31;;;;;;;9.13;6.63;;;;;;;;;;5047258;28;20098;-72
2022/05/04 01:01:57;;;;;;;12.23;6.63;;;;;;;;;;5041194;28;20045;-70
2022/05/04 01:04:23;;;;;;;12.75;6.47;;;;;;;;;;5049385;28;20399;-71
2022/05/04 01:06:48;;;;;;;11.68;7.07;;;;;;;;;;5057899;28;20036;-70
2022/05/04 01:09:14;;;;;;;10.93;7.30;;;;;;;;;;5051405;28;20036;-70
2022/05/04 01:11:39;;;;;;;10.13;7.07;;;;;;;;;;5062161;28;20094;-71
2022/05/04 01:14:06;;;;;;;9.23;7.38;;;;;;;;;;5055672;28;20091;-70
2022/05/04 01:16:32;;;;;;;9.60;7.07;;;;;;;;;;5052644;28;20399;-72
2022/05/04 01:18:58;;;;;;;14.57;8.05;;;;;;;;;;5030497;28;20037;-71
2022/05/04 01:21:23;;;;;;;10.52;7.75;;;;;;;;;;5012416;28;20045;-71
2022/05/04 01:23:49;;;;;;;11.48;7.47;;;;;;;;;;5045777;28;20037;-71
2022/05/04 01:26:17;;;;;;;18.33;7.93;;;;;;;;;;5058298;28;20029;-70
2022/05/04 01:28:43;;;;;;;12.95;8.10;;;;;;;;;;5042223;28;20029;-71
2022/05/04 01:31:08;;;;;;;12.73;8.52;;;;;;;;;;5044851;28;20060;-70
2022/05/04 01:33:33;;;;;;;14.20;8.98;;;;;;;;;;5038256;28;20037;-70
2022/05/04 01:35:59;;;;;;;11.30;9.17;;;;;;;;;;5038725;28;20487;-71
2022/05/04 01:38:24;;;;;;;11.10;8.87;;;;;;;;;;5046117;28;20274;-72
2022/05/04 01:40:49;;;;;;;15.77;9.57;;;;;;;;;;5043755;28;20697;-72
2022/05/04 01:43:14;;;;;;;12.27;8.87;;;;;;;;;;5054003;28;20275;-71
2022/05/04 01:45:40;;;;;;;16.77;8.87;;;;;;;;;;5052275;28;20265;-72
2022/05/04 01:48:05;;;;;;;12.32;8.68;;;;;;;;;;5051288;28;20373;-72
2022/05/04 01:50:31;;;;;;;16.90;9.05;;;;;;;;;;5048596;28;20029;-71
2022/05/04 01:52:56;;;;;;;12.83;8.67;;;;;;;;;;5034100;28;20124;-72
2022/05/04 01:55:22;;;;;;;11.45;8.65;;;;;;;;;;5035554;28;20617;-72
2022/05/04 01:57:47;;;;;;;13.40;9.40;;;;;;;;;;5052253;28;20061;-71
2022/05/04 02:00:13;;;;;;;11.65;8.68;;;;;;;;;;5050218;28;20100;-71
2022/05/04 02:02:38;;;;;;;13.95;9.20;;;;;;;;;;5051846;28;20556;-71
2022/05/04 02:05:04;;;;;;;13.65;8.25;;;;;;;;;;5051450;28;20075;-72
2022/05/04 02:07:29;;;;;;;13.98;8.55;;;;;;;;;;5052826;28;20090;-71
2022/05/04 02:09:56;;;;;;;12.45;7.57;;;;;;;;;;5051857;28;20037;-70
2022/05/04 02:12:21;;;;;;;14.32;8.18;;;;;;;;;;5052479;28;20410;-71
2022/05/04 02:14:47;;;;;;;11.30;8.48;;;;;;;;;;5053338;28;20064;-71
2022/05/04 02:17:12;;;;;;;10.57;8.13;;;;;;;;;;5051418;28;20041;-71
2022/05/04 02:19:37;;;;;;;11.40;8.37;;;;;;;;;;5044697;28;20041;-71
2022/05/04 02:22:03;;;;;;;12.13;8.43;;;;;;;;;;5052230;28;20070;-70
2022/05/04 02:24:28;;;;;;;11.50;7.90;;;;;;;;;;5051975;28;20297;-72
2022/05/04 02:26:53;;;;;;;13.10;8.13;;;;;;;10.25;nan;100603.81;5026073;28;20038;-70
2022/05/04 02:29:18;;;;;;;12.60;8.68;;;;;;;;;;5041383;28;20134;-70
2022/05/04 02:31:44;;;;;;;14.03;8.37;;;;;;;;;;5042241;28;20179;-71
2022/05/04 02:34:09;;;;;;;13.37;8.73;;;;;;;;;;5031828;28;20328;-72
2022/05/04 02:39:18;;;;;;;12.13;9.07;;;;;;;;;;5043679;28;20278;-73
2022/05/04 02:41:43;;;;;;;13.43;9.07;;;;;;;;;;5032031;28;20045;-71
2022/05/04 02:44:09;;;;;;;15.55;9.05;;;;;;;;;;5045943;28;20656;-71
2022/05/04 02:46:34;;;;;;;12.65;9.07;;;;;;;;;;5044807;28;20072;-71
2022/05/04 02:49:00;;;;;;;11.48;8.82;;;;;;;;;;5048825;28;20480;-71
2022/05/04 02:51:25;;;;;;;13.65;8.02;;;;;;;;;;5048807;28;20434;-70
2022/05/04 02:53:51;;;;;;;15.55;8.43;;;;;;;;;;5041445;28;20045;-70
2022/05/04 02:56:16;;;;;;;11.88;7.50;;;;;;;;;;5050767;28;20048;-70
2022/05/04 02:58:42;;;;;;;13.45;7.88;;;;;;;;;;5026943;28;20049;-71
2022/05/04 03:03:56;;;;;;;10.70;7.10;;;;;;;;;;5030034;28;20041;-71
2022/05/04 03:06:22;;;;;;;10.43;6.72;;;;;;;;;;5030939;28;20041;-71
2022/05/04 03:08:47;;;;;;;12.80;6.75;;;;;;;;;;5027365;28;20142;-70
2022/05/04 03:13:56;;;;;;;12.68;6.95;;;;;;;;;;5011676;28;20132;-70
2022/05/04 03:16:21;;;;;;;12.23;6.53;;;;;;;;;;5012706;28;20167;-70
2022/05/04 03:18:47;;;;;;;11.77;7.17;;;;;;;;;;5032263;28;20644;-70
2022/05/04 03:21:12;;;;;;;16.30;6.80;;;;;;;;;;5026365;28;20278;-70
2022/05/04 03:23:37;;;;;;;11.37;6.33;;;;;;;;;;5020363;28;20037;-70
2022/05/04 03:26:02;;;;;;;10.23;6.37;;;;;;;;;;5030591;28;20278;-71
2022/05/04 03:28:28;;;;;;;8.40;6.83;;;;;;;;;;5018634;28;20697;-71
2022/05/04 03:30:53;;;;;;;10.33;6.93;;;;;;;;;;5029587;28;20274;-72
2022/05/04 03:33:18;;;;;;;1999.90;398.45;;;;;;;;;;5018671;28;20634;-70
2022/05/04 03:35:44;;;;;;;49.23;30.70;;;;;;;;;;5029077;28;20041;-70
2022/05/04 03:38:09;;;;;;;15.95;8.95;;;;;;;;;;5029201;28;20317;-72
2022/05/04 03:40:34;;;;;;;13.13;7.90;;;;;;;;;;5043857;28;20064;-73
2022/05/04 03:43:00;;;;;;;14.33;8.20;;;;;;;;;;5025721;28;20317;-73
2022/05/04 03:45:25;;;;;;;11.70;7.55;;;;;;;;;;5046074;28;20289;-72
2022/05/04 03:47:50;;;;;;;12.93;8.37;;;;;;;;;;5031823;28;20061;-73
2022/05/04 03:50:16;;;;;;;13.57;8.30;;;;;;;;;;5050196;28;20312;-70
2022/05/04 03:52:41;;;;;;;19.35;9.00;;;;;;;;;;5038497;28;20041;-73
2022/05/04 03:55:07;;;;;;;13.63;9.13;;;;;;;;;;5040922;28;20521;-70
2022/05/04 03:57:32;;;;;;;15.27;8.80;;;;;;;;;;5061638;28;20049;-69
2022/05/04 03:59:57;;;;;;;16.40;8.60;;;;;;;;;;5047050;28;20034;-70
2022/05/04 04:02:22;;;;;;;13.68;8.93;;;;;;;;;;5051115;28;20313;-70
2022/05/04 04:04:48;;;;;;;16.07;9.13;;;;;;;;;;5059434;28;20060;-72
2022/05/04 04:07:13;;;;;;;13.70;9.20;;;;;;;;;;5049782;28;20334;-70
2022/05/04 04:09:38;;;;;;;14.93;9.40;;;;;;;;;;5042382;28;20652;-71
2022/05/04 04:12:04;;;;;;;11.13;8.20;;;;;;;;;;5043450;28;20290;-71
2022/05/04 04:14:29;;;;;;;11.85;9.05;;;;;;;;;;5052189;28;20690;-69
2022/05/04 04:16:54;;;;;;;15.50;9.40;;;;;;;;;;5033925;28;20128;-70
2022/05/04 04:19:19;;;;;;;13.73;9.80;;;;;;;;;;5041520;28;20045;-70
2022/05/04 04:21:52;;;;;;;14.73;9.55;;;;;;;;;;5038062;28;20464;-71
2022/05/04 04:24:17;;;;;;;13.15;9.65;;;;;;;;;;5038322;28;20044;-69
2022/05/04 04:26:42;;;;;;;15.88;10.43;;;;;;;;;;5036246;28;20034;-72
2022/05/04 04:29:08;;;;;;;20.20;10.57;;;;;;;;;;5028451;28;20116;-70
2022/05/04 04:31:33;;;;;;;15.15;10.43;;;;;;;;;;5031569;28;20430;-71
2022/05/04 04:34:01;;;;;;;23.10;11.15;;;;;;;;;;5035236;28;20556;-70
2022/05/04 04:36:26;;;;;;;17.17;10.35;;;;;;;;;;5034443;28;20064;-71
2022/05/04 04:38:51;;;;;;;13.13;10.37;;;;;;;;;;5049289;28;20115;-71
2022/05/04 04:41:17;;;;;;;16.80;10.57;;;;;;;;;;5029222;28;20283;-70
2022/05/04 04:43:43;;;;;;;13.50;10.60;;;;;;;;;;5014938;28;20610;-71
2022/05/04 04:46:08;;;;;;;15.07;9.95;;;;;;;;;;5019804;28;20045;-71
2022/05/04 04:48:34;;;;;;;20.33;10.10;;;;;;;;;;5032655;28;20360;-72
2022/05/04 04:50:59;;;;;;;14.95;10.15;;;;;;;;;;5033406;28;20087;-73
2022/05/04 04:53:25;;;;;;;16.70;10.13;;;;;;;;;;5033680;28;20418;-72
2022/05/04 04:55:50;;;;;;;18.55;9.85;;;;;;;;;;5031620;28;20046;-74
2022/05/04 04:58:15;;;;;;;12.30;9.77;;;;;;;;;;5045524;28;20046;-73
2022/05/04 05:00:41;;;;;;;15.15;9.23;;;;;;;;;;5030911;28;20124;-73
2022/05/04 05:03:06;;;;;;;15.35;10.02;;;;;;;;;;5032964;28;20442;-73
2022/05/04 05:05:32;;;;;;;12.43;9.65;;;;;;;;;;5048861;28;20131;-73
2022/05/04 05:07:57;;;;;;;23.10;10.38;;;;;;;;;;5020374;28;20392;-75
2022/05/04 05:10:22;;;;;;;17.80;10.02;;;;;;;;;;5044621;28;20144;-73
2022/05/04 05:12:50;;;;;;;14.52;9.98;;;;;;;;;;5028398;28;20559;-72
2022/05/04 05:17:59;;;;;;;18.52;10.57;;;;;;;;;;5022311;28;20049;-72
2022/05/04 05:20:24;;;;;;;14.43;10.75;;;;;;;;;;5044839;28;20037;-73
2022/05/04 05:22:50;;;;;;;15.02;10.50;;;;;;;;;;5018022;28;20037;-74
2022/05/04 05:25:15;;;;;;;17.80;9.68;;;;;;;;;;5031637;28;20075;-73
2022/05/04 05:27:40;;;;;;;13.32;10.25;;;;;;;;;;5033311;28;20372;-74
2022/05/04 05:30:06;;;;;;;18.67;9.90;;;;;;;;;;5030593;28;20065;-73
2022/05/04 05:32:32;;;;;;;14.20;9.52;;;;;;;;;;5027850;28;20279;-73
2022/05/04 05:34:57;;;;;;;11.45;8.32;;;;;;;;;;5047784;28;20448;-73
2022/05/04 05:37:22;;;;;;;14.45;8.25;;;;;;;;;;5032711;28;20029;-72
2022/05/04 05:39:48;;;;;;;13.23;8.40;;;;;;;;;;5031263;28;20132;-71
2022/05/04 05:42:13;;;;;;;14.20;8.30;;;;;;;;;;5032673;28;20056;-72
2022/05/04 05:44:38;;;;;;;12.38;8.55;;;;;;;;;;5032828;28;20052;-72
2022/05/04 05:47:04;;;;;;;20.93;8.50;;;;;;;;;;5031328;28;20052;-73
2022/05/04 05:49:30;;;;;;;12.98;8.40;;;;;;;;;;5031241;28;20274;-73
2022/05/04 05:51:55;;;;;;;15.73;8.35;;;;;;;;;;5032708;28;20037;-74
2022/05/04 05:54:20;;;;;;;15.43;9.07;;;;;;;;;;5031506;28;20048;-72
2022/05/04 05:56:46;;;;;;;12.90;8.70;;;;;;;;;;5031169;28;20037;-72
2022/05/04 05:59:12;;;;;;;13.48;8.05;;;;;;;;;;5052487;28;20305;-73
2022/05/04 06:01:37;;;;;;;14.40;8.15;;;;;;;;;;5021412;28;20045;-73
2022/05/04 06:04:02;;;;;;;15.90;8.15;;;;;;;;;;5051479;28;20041;-73
2022/05/04 06:06:28;;;;;;;13.77;8.13;;;;;;;;;;5052840;28;20041;-73
2022/05/04 06:08:53;;;;;;;14.40;8.13;;;;;;;;;;5052319;28;20045;-74
2022/05/04 06:11:18;;;;;;;14.57;8.13;;;;;;;;;;5030478;28;20043;-73
2022/05/04 06:13:44;;;;;;;15.68;8.73;;;;;;;;;;5034180;28;20049;-73
2022/05/04 06:16:09;;;;;;;14.50;7.97;;;;;;;;;;5052300;28;20036;-72
2022/05/04 06:18:34;;;;;;;17.43;8.20;;;;;;;;;;5050103;28;20273;-73
2022/05/04 06:21:00;;;;;;;11.75;6.57;;;;;;;;;;5021246;28;20087;-72
2022/05/04 06:23:25;;;;;;;13.77;6.10;;;;;;;;;;5032575;28;20037;-71
2022/05/04 06:25:50;;;;;;;7.28;5.47;;;;;;;;;;5052663;28;20037;-73
2022/05/04 06:28:16;;;;;;;9.50;5.70;;;;;;;;;;5055952;28;20040;-73
2022/05/04 06:36:08;;;;;;;12.75;6.63;;;;;;;;;;5052966;28;20032;-74
2022/05/04 06:38:34;;;;;;;9.27;5.72;;;;;;;;;;5051289;28;20043;-73
2022/05/04 06:41:00;;;;;;;8.93;6.25;;;;;;;;;;5035306;28;20029;-73
2022/05/04 06:43:26;;;;;;;10.85;6.85;;;;;;;;;;5052517;28;20044;-73
2022/05/04 06:45:51;;;;;;;11.00;6.53;;;;;;;;;;5052817;28;20127;-74
2022/05/04 06:48:16;;;;;;;8.20;6.25;;;;;;;;;;5053222;28;20036;-73
2022/05/04 06:50:42;;;;;;;8.17;6.23;;;;;;;;;;5031959;28;20055;-73
2022/05/04 06:53:07;;;;;;;10.57;6.93;;;;;;;;;;5039093;28;20764;-73
2022/05/04 06:55:33;;;;;;;11.77;6.30;;;;;;;;;;5043244;28;20037;-73
2022/05/04 06:57:58;;;;;;;7.73;6.30;;;;;;;;;;5046383;28;20288;-73
2022/05/04 07:00:23;;;;;;;12.07;6.73;;;;;;;;;;5059407;28;20286;-73
2022/05/04 07:02:48;;;;;;;12.30;6.80;;;;;;;;;;5057819;28;20250;-72
2022/05/04 07:05:14;;;;;;;8.80;6.27;;;;;;;;;;5074991;28;20033;-70
2022/05/04 07:07:39;;;;;;;8.82;6.45;;;;;;;;;;5076016;28;20313;-70
2022/05/04 07:10:06;;;;;;;8.43;6.17;;;;;;;;;;5051168;28;20235;-73
2022/05/04 07:12:31;;;;;;;11.68;7.15;;;;;;;;;;5058708;28;20017;-73
2022/05/04 07:14:56;;;;;;;13.47;7.00;;;;;;;;;;5052770;28;20033;-71
2022/05/04 07:17:22;;;;;;;9.93;6.57;;;;;;;;;;5068727;28;20041;-70
2022/05/04 07:19:47;;;;;;;10.90;6.35;;;;;;;;;;5075807;28;20285;-70
2022/05/04 07:22:13;;;;;;;10.73;6.37;;;;;;;;;;5074849;28;20491;-71
2022/05/04 07:24:38;;;;;;;12.13;6.53;;;;;;;;;;5074110;28;20345;-71
2022/05/04 07:27:04;;;;;;;10.30;6.95;;;;;;;;;;5065903;28;20033;-73
2022/05/04 07:29:29;;;;;;;8.00;6.82;;;;;;;;;;5061774;28;20108;-74
2022/05/04 07:31:54;;;;;;;8.67;6.37;;;;;;;;;;5057692;28;20082;-74
2022/05/04 07:34:20;;;;;;;12.37;6.50;;;;;;;;;;5044883;28;20036;-73
2022/05/04 07:36:45;;;;;;;11.20;7.17;;;;;;;;;;5054096;28;20355;-73
2022/05/04 07:42:21;;;;;;;12.93;6.82;;;;;;;;;;5034741;28;20280;-73
2022/05/04 07:44:42;;;;;;;12.50;7.15;;;;;;;;;;5053154;28;20033;-73
2022/05/04 07:47:08;;;;;;;9.53;6.43;;;;;;;15.55;nan;100776.56;5053485;28;20045;-71
2022/05/04 07:49:33;;;;;;;11.27;6.28;;;;;;;;;;5050163;28;20270;-71
2022/05/04 07:51:58;;;;;;;7.77;6.07;;;;;;;;;;5050153;28;20046;-71
2022/05/04 07:54:23;;;;;;;7.60;5.50;;;;;;;;;;5062120;28;20332;-73
2022/05/04 07:56:49;;;;;;;8.07;5.80;;;;;;;;;;5051004;28;20037;-73
2022/05/04 07:59:14;;;;;;;8.68;5.63;;;;;;;;;;5050615;28;20372;-71
2022/05/04 08:04:23;;;;;;;11.43;5.50;;;;;;;;;;5050699;28;20090;-71
2022/05/04 08:06:49;;;;;;;6.90;4.67;;;;;;;;;;5050838;28;20476;-71
2022/05/04 08:09:15;;;;;;;7.03;4.72;;;;;;;;;;5050544;28;20257;-71
2022/05/04 08:11:41;;;;;;;7.53;5.68;;;;;;;;;;5050127;28;20040;-70
2022/05/04 08:14:07;;;;;;;6.72;4.70;;;;;;;;;;5032219;28;20207;-71
2022/05/04 08:16:32;;;;;;;10.57;4.82;;;;;;;;;;5051462;28;20032;-71
2022/05/04 08:19:00;;;;;;;7.07;4.38;;;;;;;;;;5063319;28;20041;-70
2022/05/04 08:21:25;;;;;;;5.60;3.75;;;;;;;;;;5035756;28;20034;-72
2022/05/04 08:23:51;;;;;;;9.35;4.13;;;;;;;16.78;nan;100794.41;5012773;28;20041;-71
2022/05/04 08:26:16;;;;;;;8.18;4.72;;;;;;;;;;5045140;28;20045;-73
2022/05/04 08:28:42;;;;;;;8.30;4.65;;;;;;;;;;5050309;28;20079;-74
2022/05/04 08:31:07;;;;;;;8.30;4.50;;;;;;;;;;5051014;28;20518;-73
2022/05/04 08:33:32;;;;;;;7.07;4.33;;;;;;;;;;5050120;28;20364;-73
2022/05/04 08:35:58;;;;;;;7.93;4.10;;;;;;;;;;5050528;28;20124;-72
2022/05/04 08:38:23;;;;;;;6.80;4.50;;;;;;;;;;5038740;28;20095;-74
2022/05/04 08:40:54;;;;;;;6.82;4.55;;;;;;;;;;5047815;28;20392;-74
2022/05/04 08:43:21;;;;;;;7.68;4.10;;;;;;;;;;5032607;28;20060;-74
2022/05/04 08:45:50;;;;;;;12.40;3.85;;;;;;;;;;5050551;28;20041;-72
2022/05/04 08:48:15;;;;;;;;;;;;;;;;;;5047569;28;20033;-72
2022/05/04 08:50:40;;;;;;;8.50;4.60;;;;;;;;;;5054892;28;20381;-73
2022/05/04 08:53:07;;;;;;;8.10;4.23;;;;;;;;;;5053950;28;20048;-74
2022/05/04 08:55:33;;;;;;;6.80;3.90;;;;;;;;;;5032756;28;20258;-72
2022/05/04 08:57:58;;;;;;;5.22;4.10;;;;;;;;;;5054125;28;20040;-74
2022/05/04 09:00:24;;;;;;;7.80;3.90;;;;;;;;;;5054256;28;20111;-74
2022/05/04 09:02:50;;;;;;;9.02;3.63;;;;;;;;;;5049856;28;20273;-74
2022/05/04 09:05:19;;;;;;;5.47;3.83;;;;;;;;;;5054350;28;20163;-75
2022/05/04 09:07:44;;;;;;;7.00;3.85;;;;;;;;;;5036324;28;20043;-74
2022/05/04 09:10:21;;;;;;;5.60;3.55;;;;;;;;;;5030893;28;20132;-75
2022/05/04 09:12:47;;;;;;;9.23;4.03;;;;;;;;;;5060477;28;20044;-76
2022/05/04 09:15:23;;;;;;;8.30;4.15;;;;;;;;;;5030476;28;20364;-74
2022/05/04 09:18:00;;;;;;;7.45;3.88;;;;;;;18.38;nan;100746.69;5042602;28;20077;-75
2022/05/04 09:23:16;;;;;;;4.45;3.33;;;;;;;18.49;nan;100768.84;5052218;28;20041;-75
2022/05/04 09:26:07;;;;;;;5.72;3.58;;;;;;;;;;5047521;28;20563;-76
2022/05/04 09:28:34;;;;;;;8.60;3.42;;;;;;;18.47;nan;100702.44;5024105;28;20037;-76
2022/05/04 09:31:04;;;;;;;7.35;3.50;;;;;;;;;;5052522;28;20037;-75
2022/05/04 09:33:32;;;;;;;5.70;3.60;;;;;;;18.70;nan;100732.28;5043753;28;20029;-75
2022/05/04 09:35:59;;;;;;;6.13;3.33;;;;;;;18.69;nan;100730.66;5034030;28;20551;-74
2022/05/04 09:47:20;;;;;;;8.25;3.30;;;;;;;19.05;nan;100762.59;5009614;28;20037;-75
2022/05/04 09:49:50;;;;;;;6.72;3.67;;;;;;;19.19;nan;100720.09;5011819;28;20492;-74
2022/05/04 09:52:21;;;;;;;7.05;3.53;;;;;;;19.23;nan;100679.22;5010201;28;20091;-72
2022/05/04 09:54:47;;;;;;;8.88;3.83;;;;;;;19.33;nan;100697.06;5011507;28;20076;-73
2022/05/04 09:57:13;;;;;;;7.68;3.53;;;;;;;19.39;nan;100709.28;5000187;28;20057;-71
2022/05/04 09:59:42;;;;;;;5.25;3.50;;;;;;;19.34;nan;100683.41;5006765;28;20048;-71
2022/05/04 10:02:09;;;;;;;6.55;3.53;;;;;;;19.41;nan;100691.13;5003821;28;20050;-71
2022/05/04 10:04:36;;;;;;;5.30;3.17;;;;;;;19.42;nan;100683.91;5004487;28;20033;-73
2022/05/04 10:07:03;;;;;;;7.28;3.40;;;;;;;19.41;nan;100671.63;4987653;28;20049;-72
2022/05/04 10:09:32;;;;;;;7.20;3.40;;;;;;;19.49;nan;100685.22;4991601;28;21607;-73
2022/05/04 10:11:58;;;;;;;;;;;;;;;19.62;nan;100683.78;5008003;28;20045;-73
2022/05/04 10:14:26;;;;;;;5.95;3.80;;;;;;;19.63;nan;100679.22;5020483;28;19944;-73
2022/05/04 10:17:18;;;;;;;4.25;3.20;;;;;;;19.70;nan;100677.88;5045095;28;20044;-73
2022/05/04 10:19:50;;;;;;;5.15;3.10;;;;;;;;;;5040267;28;20406;-72
2022/05/04 10:22:24;;;;;;;4.60;3.00;;;;;;;19.95;nan;100660.03;5062036;28;20041;-75
2022/05/04 10:24:51;;;;;;;7.00;3.20;;;;;;;20.06;nan;100680.25;5046496;28;20034;-75
2022/05/04 10:27:21;;;;;;;8.85;4.10;;;;;;;20.18;nan;100674.53;5048770;28;20060;-76
2022/05/04 10:32:35;;;;;;;4.85;3.40;;;;;;;;;;5051553;28;20032;-73
2022/05/04 10:35:14;;;;;;;7.88;3.40;;;;;;;20.30;nan;100656.22;5065828;28;20105;-74
2022/05/04 10:37:57;;;;;;;4.03;3.35;;;;;;;20.47;nan;100671.03;5057423;28;20024;-72
2022/05/04 10:40:32;;;;;;;4.45;3.40;;;;;;;20.44;nan;100647.53;5067634;28;20048;-72
2022/05/04 10:43:06;;;;;;;8.90;3.50;;;;;;;20.56;nan;100655.97;5073792;28;20033;-73
2022/05/04 10:45:37;;;;;;;6.57;3.15;;;;;;;20.65;nan;100656.16;5064292;28;20014;-72
2022/05/04 10:48:15;;;;;;;7.70;3.45;;;;;;;;;;5056201;28;20018;-73
2022/05/04 10:51:03;;;;;;;8.10;3.17;;;;;;;20.76;nan;100652.28;5060236;28;20032;-72
2022/05/04 10:53:29;;;;;;;6.15;3.47;;;;;;;20.86;nan;100652.13;5059839;28;20039;-73
2022/05/04 10:56:03;;;;;;;5.82;3.35;;;;;;;20.87;nan;100640.34;5038460;28;20029;-71
2022/05/04 10:58:41;;;;;;;8.50;3.17;;;;;;;20.76;nan;100641.56;5057063;28;20037;-73
2022/05/04 11:01:15;;;;;;;5.75;3.50;;;;;;;20.82;nan;100643.06;5026402;28;20056;-73
2022/05/04 11:04:15;;;;;;;7.55;3.50;;;;;;;20.79;nan;100646.34;5043109;28;20025;-72
2022/05/04 11:06:49;;;;;;;6.70;3.60;;;;;;;20.76;nan;100580.00;5045370;28;20025;-73
2022/05/04 11:09:25;;;;;;;15.73;3.83;;;;;;;20.89;nan;100586.53;5053712;28;20136;-70
2022/05/04 11:11:52;;;;;;;6.28;3.40;;;;;;;21.06;nan;100596.72;5045148;28;20037;-72
2022/05/04 11:14:23;;;;;;;7.95;3.15;;;;;;;21.22;nan;100627.56;5052662;28;20041;-73
2022/05/04 11:16:51;;;;;;;8.68;3.40;;;;;;;21.35;nan;100624.13;5045821;28;21202;-71
2022/05/04 11:19:17;;;;;;;8.20;3.80;;;;;;;21.43;nan;100618.16;5049646;28;20037;-72
2022/05/04 11:21:43;;;;;;;6.68;3.50;;;;;;;21.53;nan;100611.03;5051537;28;20123;-72
2022/05/04 11:24:11;;;;;;;5.00;3.20;;;;;;;21.62;nan;100596.66;5050186;28;20021;-72
2022/05/04 11:26:42;;;;;;;7.55;4.10;;;;;;;21.60;nan;100531.06;5051030;28;20029;-71
2022/05/04 11:29:10;;;;;;;6.90;3.05;;;;;;;21.76;nan;100658.34;5047062;28;20037;-71
2022/05/04 11:31:35;;;;;;;6.03;3.50;;;;;;;21.85;nan;100629.75;5047627;28;20123;-70
2022/05/04 11:34:01;;;;;;;5.63;3.50;;;;;;;21.90;nan;100668.31;5042487;28;20048;-73
2022/05/04 11:36:27;;;;;;;6.70;3.67;;;;;;;21.99;nan;100618.28;5047867;28;20032;-72
2022/05/04 11:38:53;;;;;;;6.82;3.40;;;;;;;21.94;nan;100607.66;5051492;28;20463;-73
2022/05/04 11:41:20;;;;;;;6.85;3.30;;;;;;;21.97;nan;100679.44;5045224;28;20041;-72
2022/05/04 11:43:48;;;;;;;5.85;3.17;;;;;;;21.95;nan;100628.78;5047517;28;20037;-72
2022/05/04 11:46:15;;;;;;;11.45;3.53;;;;;;;21.92;nan;100565.03;5036738;28;20120;-71
2022/05/04 11:48:45;;;;;;;6.90;3.30;;;;;;;21.92;nan;100591.84;5048518;28;20040;-74
2022/05/04 11:51:14;;;;;;;4.60;3.05;;;;;;;21.95;nan;100601.19;5038128;28;20036;-74
2022/05/04 11:53:39;;;;;;;4.43;3.20;;;;;;;21.92;nan;100556.22;5047332;28;20112;-72
2022/05/04 11:56:06;;;;;;;5.22;3.03;;;;;;;21.90;nan;100612.00;5046935;28;20639;-70
2022/05/04 11:58:34;;;;;;;5.68;3.15;;;;;;;21.81;nan;100601.97;5030405;28;20037;-72
2022/05/04 12:01:01;;;;;;;7.80;3.28;;;;;;;21.74;nan;100584.66;5025229;28;20030;-72
2022/05/04 12:03:29;;;;;;;6.65;3.00;;;;;;;21.71;nan;100588.72;5051106;28;20068;-73
2022/05/04 12:05:55;;;;;;;7.63;3.20;;;;;;;21.73;nan;100609.88;5034442;28;20041;-73
2022/05/04 12:08:22;;;;;;;9.25;3.63;;;;;;;21.68;nan;100608.09;5042706;28;20194;-72
2022/05/04 12:10:51;;;;;;;9.75;3.85;;;;;;;;;;5043434;28;20051;-72
2022/05/04 12:13:25;;;;;;;7.38;3.50;;;;;;;21.64;nan;100599.03;5044045;28;20041;-72
2022/05/04 12:15:54;;;;;;;5.47;3.50;;;;;;;21.67;nan;100591.22;5042146;28;20029;-75
2022/05/04 12:18:20;;;;;;;8.20;3.33;;;;;;;21.58;nan;100587.63;5056625;28;20413;-71
2022/05/04 12:20:49;;;;;;;7.60;3.38;;;;;;;21.59;nan;100621.34;5063076;28;20704;-74
2022/05/04 12:23:15;;;;;;;5.25;3.17;;;;;;;21.59;nan;100569.66;5040963;28;20045;-74
2022/05/04 12:25:42;;;;;;;4.75;2.88;;;;;;;21.73;nan;100573.16;5052226;28;20037;-73
2022/05/04 12:28:09;;;;;;;7.60;3.08;;;;;;;21.80;nan;100576.25;5048216;28;20041;-72
2022/05/04 12:33:41;;;;;;;7.95;3.10;;;;;;;21.80;nan;100591.53;5037092;28;20029;-73
2022/05/04 12:36:08;;;;;;;6.50;3.10;;;;;;;21.78;nan;100542.78;5015658;28;20421;-73
2022/05/04 12:38:37;;;;;;;8.63;3.30;;;;;;;21.74;nan;100560.53;5031825;28;20537;-71
2022/05/04 12:41:04;;;;;;;8.65;3.10;;;;;;;21.80;nan;100565.53;5029364;28;20036;-74
2022/05/04 12:43:37;;;;;;;6.75;3.65;;;;;;;21.80;nan;100532.56;5035351;28;20037;-74
2022/05/04 12:46:09;;;;;;;6.20;3.42;;;;;;;21.88;nan;100539.91;5050914;28;20037;-73
2022/05/04 12:48:38;;;;;;;5.00;3.38;;;;;;;21.87;nan;100516.88;5046606;28;20102;-71
2022/05/04 12:51:04;;;;;;;6.22;3.20;;;;;;;21.98;nan;100534.38;5052477;28;20033;-72
2022/05/04 12:53:29;;;;;;;5.38;2.90;;;;;;;22.01;nan;100532.97;5050843;28;20417;-72
2022/05/04 12:58:40;;;;;;;4.60;2.75;;;;;;;;;;5057793;28;20044;-73
2022/05/04 13:01:06;;;;;;;5.32;3.30;;;;;;;22.13;nan;100538.63;5023921;28;20549;-70
2022/05/04 13:03:32;;;;;;;6.45;2.83;;;;;;;;;;5053898;28;20504;-72
2022/05/04 13:05:58;;;;;;;5.82;2.55;;;;;;;22.08;nan;100571.72;5035341;28;20037;-72
2022/05/04 13:08:23;;;;;;;7.20;3.10;;;;;;;22.11;nan;100535.44;5049984;28;20040;-70
2022/05/04 13:10:49;;;;;;;3.40;2.88;;;;;;;22.08;nan;100574.38;5051449;28;20484;-70
2022/05/04 13:13:19;;;;;;;5.63;2.88;;;;;;;22.16;nan;100513.88;5053539;28;20158;-72
2022/05/04 13:15:51;;;;;;;8.30;2.85;;;;;;;22.12;nan;100534.34;5038191;28;20037;-72
2022/05/04 13:18:17;;;;;;;5.60;2.60;;;;;;;;;;5027039;28;20079;-73
2022/05/04 13:20:43;;;;;;;6.85;2.85;;;;;;;22.06;nan;100530.19;5035546;28;20530;-71
2022/05/04 13:23:09;;;;;;;5.97;2.85;;;;;;;21.96;nan;100525.81;5044772;28;20813;-72
2022/05/04 13:25:34;;;;;;;7.72;2.92;;;;;;;21.98;nan;100528.19;5045859;28;20036;-72
2022/05/04 13:28:00;;;;;;;5.00;3.08;;;;;;;21.99;nan;100532.47;5049532;28;20048;-73
2022/05/04 13:30:26;;;;;;;6.88;2.58;;;;;;;21.95;nan;100520.75;5024699;28;20036;-73
2022/05/04 13:32:51;;;;;;;8.75;3.00;;;;;;;21.86;nan;100489.28;5023870;28;20462;-74
2022/05/04 13:35:17;;;;;;;6.38;2.67;;;;;;;21.99;nan;100519.84;5052290;28;20033;-72
2022/05/04 13:37:42;;;;;;;5.32;2.65;;;;;;;22.05;nan;100517.84;5050694;28;20041;-73
2022/05/04 13:40:08;;;;;;;5.63;3.50;;;;;;;22.17;nan;100526.22;5021132;28;20040;-74
2022/05/04 13:42:34;;;;;;;4.32;2.80;;;;;;;22.18;nan;100492.13;5023424;28;20038;-73
2022/05/04 13:45:00;;;;;;;3.65;2.50;;;;;;;22.22;nan;100569.06;5025368;28;20056;-72
2022/05/04 13:47:25;;;;;;;6.82;2.78;;;;;;;22.24;nan;100517.78;5044535;28;20479;-72
2022/05/04 13:49:51;;;;;;;5.32;2.85;;;;;;;22.28;nan;100519.56;5045255;28;20049;-74
2022/05/04 13:55:01;;;;;;;4.90;2.75;;;;;;;22.35;nan;100519.16;5049713;28;20033;-73
2022/05/04 13:57:26;;;;;;;6.85;2.38;;;;;;;22.41;nan;100525.19;5019394;28;20499;-73
2022/05/04 13:59:52;;;;;;;3.25;2.30;;;;;;;22.37;nan;100570.63;5048167;28;20047;-76
2022/05/04 14:02:17;;;;;;;4.80;3.15;;;;;;;22.44;nan;100527.31;5043658;28;20037;-74
2022/05/04 14:04:43;;;;;;;4.00;2.78;;;;;;;22.45;nan;100526.19;5032164;28;20041;-74
2022/05/04 14:07:08;;;;;;;4.55;3.85;;;;;;;22.52;nan;100523.91;5020760;28;20498;-75
2022/05/04 14:09:34;;;;;;;4.10;2.75;;;;;;;22.55;nan;100522.50;5047757;28;20537;-73
2022/05/04 14:12:00;;;;;;;3.92;2.50;;;;;;;;;;5030970;28;20029;-71
2022/05/04 14:17:10;;;;;;;4.93;2.42;;;;;;;22.55;nan;100512.56;5046611;28;20036;-75